This is the latest recevied weather packets stored in our database for station/object WX4SGA. If no packets are shown the sender has not sent any weather packets the latest 1 day(s).
| Time | Temp. | Humidity | Pressure | Rain* | Wind** | Luminosity | Snow |
|---|---|---|---|---|---|---|---|
| 1778073409 | 23.33° C | 82% | 1017.3 hPa | 0 mm | - | 304 W/m² | - |
| 1778073105 | 22.78° C | 85% | 1016.9 hPa | 0 mm | - | 247 W/m² | - |
| 1778072802 | 22.22° C | 85% | 1016.9 hPa | 0 mm | - | 241 W/m² | - |
| 1778070080 | 19.44° C | 96% | 1016.9 hPa | 0 mm | - | 96 W/m² | - |
| 1778069474 | 18.89° C | 98% | 1016.9 hPa | 0 mm | - | 72 W/m² | - |
| 1778069172 | 18.89° C | 99% | 1016.9 hPa | 0 mm | - | 72 W/m² | - |
| 1778068869 | 18.33° C | 99% | 1016.6 hPa | 0 mm | - | 62 W/m² | - |
| 1778067962 | 17.78° C | 99% | 1016.6 hPa | 0 mm | - | 32 W/m² | - |
| 1778067358 | 17.78° C | 99% | 1016.6 hPa | 0 mm | - | 46 W/m² | - |
| 1778066147 | 17.22° C | 99% | 1016.3 hPa | 0 mm | - | 18 W/m² | - |
| 1778065844 | 16.67° C | 99% | 1016.3 hPa | 0 mm | - | 15 W/m² | - |
| 1778064632 | 17.22° C | 99% | 1015.9 hPa | 0 mm | - | 3 W/m² | - |
| 1778064330 | 17.22° C | 99% | 1015.9 hPa | 0 mm | - | 2 W/m² | - |
| 1778063422 | 17.22° C | 99% | 1015.6 hPa | 0 mm | - | 0 W/m² | - |
| 1778062817 | 17.22° C | 99% | 1015.9 hPa | 0 mm | - | 0 W/m² | - |
| 1778062514 | 17.22° C | 99% | 1015.9 hPa | 0 mm | - | 0 W/m² | - |
| 1778060699 | 17.78° C | 99% | 1016.3 hPa | 0 mm | - | 0 W/m² | - |
| 1778060397 | 17.78° C | 99% | 1016.3 hPa | 0 mm | - | 0 W/m² | - |
| 1778060095 | 17.78° C | 99% | 1016.3 hPa | 0 mm | - | 0 W/m² | - |
| 1778059490 | 17.78° C | 99% | 1016.3 hPa | 0 mm | - | 0 W/m² | - |
| 1778058885 | 17.78° C | 99% | 1015.9 hPa | 0 mm | - | 0 W/m² | - |
| 1778058582 | 17.78° C | 99% | 1015.9 hPa | 0 mm | - | 0 W/m² | - |
| 1778058279 | 17.78° C | 99% | 1015.9 hPa | 0 mm | - | 0 W/m² | - |
| 1778057672 | 17.78° C | 99% | 1015.9 hPa | 0 mm | - | 0 W/m² | - |
| 1778057368 | 17.78° C | 98% | 1015.9 hPa | 0 mm | - | 0 W/m² | - |
* Rain latest hour (hover to see other rain measurements)
** Current wind speed in m/s (hover to see current wind gust speed)